sensor_id;sensor_type;location;lat;lon;timestamp;P1;durP1;ratioP1;P2;durP2;ratioP2
48211;SDS011;34000;48.772;9.162;2024-01-11T00:01:46;20.38;;;10.48;;
48211;SDS011;34000;48.772;9.162;2024-01-11T00:04:12;20.55;;;9.57;;
48211;SDS011;34000;48.772;9.162;2024-01-11T00:06:42;22.63;;;9.90;;
48211;SDS011;34000;48.772;9.162;2024-01-11T00:09:08;20.15;;;10.10;;
48211;SDS011;34000;48.772;9.162;2024-01-11T00:11:34;24.15;;;9.60;;
48211;SDS011;34000;48.772;9.162;2024-01-11T00:14:00;25.77;;;11.52;;
48211;SDS011;34000;48.772;9.162;2024-01-11T00:16:25;23.20;;;10.80;;
48211;SDS011;34000;48.772;9.162;2024-01-11T00:18:52;25.02;;;10.85;;
48211;SDS011;34000;48.772;9.162;2024-01-11T00:21:18;26.73;;;11.30;;
48211;SDS011;34000;48.772;9.162;2024-01-11T00:23:44;27.75;;;10.85;;
48211;SDS011;34000;48.772;9.162;2024-01-11T00:26:13;21.88;;;11.07;;
48211;SDS011;34000;48.772;9.162;2024-01-11T00:28:39;20.15;;;10.25;;
48211;SDS011;34000;48.772;9.162;2024-01-11T00:31:05;24.33;;;11.93;;
48211;SDS011;34000;48.772;9.162;2024-01-11T00:33:31;17.83;;;10.57;;
48211;SDS011;34000;48.772;9.162;2024-01-11T00:35:58;28.45;;;11.00;;
48211;SDS011;34000;48.772;9.162;2024-01-11T00:38:24;25.25;;;10.32;;
48211;SDS011;34000;48.772;9.162;2024-01-11T00:40:49;21.90;;;10.02;;
48211;SDS011;34000;48.772;9.162;2024-01-11T00:43:15;26.90;;;10.57;;
48211;SDS011;34000;48.772;9.162;2024-01-11T00:45:41;20.17;;;9.65;;
48211;SDS011;34000;48.772;9.162;2024-01-11T00:48:07;21.33;;;9.90;;
48211;SDS011;34000;48.772;9.162;2024-01-11T00:50:33;23.10;;;10.77;;
48211;SDS011;34000;48.772;9.162;2024-01-11T00:52:59;23.35;;;10.50;;
48211;SDS011;34000;48.772;9.162;2024-01-11T00:55:26;28.48;;;10.60;;
48211;SDS011;34000;48.772;9.162;2024-01-11T00:57:52;17.33;;;9.13;;
48211;SDS011;34000;48.772;9.162;2024-01-11T01:00:18;23.98;;;10.23;;
48211;SDS011;34000;48.772;9.162;2024-01-11T01:02:44;20.90;;;11.07;;
48211;SDS011;34000;48.772;9.162;2024-01-11T01:05:10;23.02;;;10.77;;
48211;SDS011;34000;48.772;9.162;2024-01-11T01:07:36;19.85;;;10.50;;
48211;SDS011;34000;48.772;9.162;2024-01-11T01:10:02;21.17;;;10.07;;
48211;SDS011;34000;48.772;9.162;2024-01-11T01:12:28;21.73;;;10.13;;
48211;SDS011;34000;48.772;9.162;2024-01-11T01:14:54;20.88;;;10.50;;
48211;SDS011;34000;48.772;9.162;2024-01-11T01:17:21;28.75;;;10.60;;
48211;SDS011;34000;48.772;9.162;2024-01-11T01:19:47;23.98;;;11.80;;
48211;SDS011;34000;48.772;9.162;2024-01-11T01:22:13;21.95;;;10.30;;
48211;SDS011;34000;48.772;9.162;2024-01-11T01:24:39;22.25;;;10.18;;
48211;SDS011;34000;48.772;9.162;2024-01-11T01:27:05;21.17;;;10.32;;
48211;SDS011;34000;48.772;9.162;2024-01-11T01:29:31;23.33;;;9.90;;
48211;SDS011;34000;48.772;9.162;2024-01-11T01:31:57;17.58;;;6.80;;
48211;SDS011;34000;48.772;9.162;2024-01-11T01:34:23;26.52;;;10.77;;
48211;SDS011;34000;48.772;9.162;2024-01-11T01:36:49;16.88;;;8.13;;
48211;SDS011;34000;48.772;9.162;2024-01-11T01:39:15;23.63;;;10.20;;
48211;SDS011;34000;48.772;9.162;2024-01-11T01:41:41;22.25;;;10.63;;
48211;SDS011;34000;48.772;9.162;2024-01-11T01:44:07;22.83;;;11.05;;
48211;SDS011;34000;48.772;9.162;2024-01-11T01:46:33;22.38;;;10.10;;
48211;SDS011;34000;48.772;9.162;2024-01-11T01:49:00;24.27;;;11.15;;
48211;SDS011;34000;48.772;9.162;2024-01-11T01:51:26;28.55;;;11.38;;
48211;SDS011;34000;48.772;9.162;2024-01-11T01:53:54;21.83;;;9.80;;
48211;SDS011;34000;48.772;9.162;2024-01-11T01:56:21;20.20;;;10.73;;
48211;SDS011;34000;48.772;9.162;2024-01-11T01:58:47;24.30;;;11.60;;
48211;SDS011;34000;48.772;9.162;2024-01-11T02:01:16;18.80;;;10.57;;
48211;SDS011;34000;48.772;9.162;2024-01-11T02:03:43;28.42;;;10.73;;
48211;SDS011;34000;48.772;9.162;2024-01-11T02:06:09;21.60;;;10.77;;
48211;SDS011;34000;48.772;9.162;2024-01-11T02:08:35;20.25;;;9.80;;
48211;SDS011;34000;48.772;9.162;2024-01-11T02:11:01;26.73;;;11.63;;
48211;SDS011;34000;48.772;9.162;2024-01-11T02:13:28;21.98;;;10.45;;
48211;SDS011;34000;48.772;9.162;2024-01-11T02:15:54;28.05;;;10.80;;
48211;SDS011;34000;48.772;9.162;2024-01-11T02:18:20;22.70;;;10.57;;
48211;SDS011;34000;48.772;9.162;2024-01-11T02:20:46;22.17;;;9.95;;
48211;SDS011;34000;48.772;9.162;2024-01-11T02:23:14;25.00;;;11.00;;
48211;SDS011;34000;48.772;9.162;2024-01-11T02:25:42;24.92;;;11.52;;
48211;SDS011;34000;48.772;9.162;2024-01-11T02:28:08;28.10;;;11.68;;
48211;SDS011;34000;48.772;9.162;2024-01-11T02:30:34;20.42;;;10.27;;
48211;SDS011;34000;48.772;9.162;2024-01-11T02:33:00;24.42;;;10.85;;
48211;SDS011;34000;48.772;9.162;2024-01-11T02:35:26;25.25;;;11.02;;
48211;SDS011;34000;48.772;9.162;2024-01-11T02:37:53;24.95;;;12.02;;
48211;SDS011;34000;48.772;9.162;2024-01-11T02:40:19;21.83;;;10.23;;
48211;SDS011;34000;48.772;9.162;2024-01-11T02:42:45;22.98;;;11.60;;
48211;SDS011;34000;48.772;9.162;2024-01-11T02:45:11;26.80;;;10.57;;
48211;SDS011;34000;48.772;9.162;2024-01-11T02:47:38;26.83;;;11.65;;
48211;SDS011;34000;48.772;9.162;2024-01-11T02:50:04;19.42;;;10.63;;
48211;SDS011;34000;48.772;9.162;2024-01-11T02:52:30;19.65;;;10.48;;
48211;SDS011;34000;48.772;9.162;2024-01-11T02:54:57;21.05;;;10.00;;
48211;SDS011;34000;48.772;9.162;2024-01-11T02:57:23;22.95;;;10.55;;
48211;SDS011;34000;48.772;9.162;2024-01-11T02:59:49;29.65;;;11.75;;
48211;SDS011;34000;48.772;9.162;2024-01-11T03:02:15;19.77;;;9.40;;
48211;SDS011;34000;48.772;9.162;2024-01-11T03:04:41;22.98;;;11.52;;
48211;SDS011;34000;48.772;9.162;2024-01-11T03:07:07;27.90;;;10.50;;
48211;SDS011;34000;48.772;9.162;2024-01-11T03:09:33;18.75;;;9.35;;
48211;SDS011;34000;48.772;9.162;2024-01-11T03:11:59;23.13;;;10.75;;
48211;SDS011;34000;48.772;9.162;2024-01-11T03:14:25;20.40;;;9.05;;
48211;SDS011;34000;48.772;9.162;2024-01-11T03:16:51;25.98;;;10.52;;
48211;SDS011;34000;48.772;9.162;2024-01-11T03:19:17;20.17;;;10.15;;
48211;SDS011;34000;48.772;9.162;2024-01-11T03:21:43;20.65;;;9.38;;
48211;SDS011;34000;48.772;9.162;2024-01-11T03:24:09;24.70;;;10.93;;
48211;SDS011;34000;48.772;9.162;2024-01-11T03:26:35;22.15;;;11.55;;
48211;SDS011;34000;48.772;9.162;2024-01-11T03:29:01;20.73;;;10.60;;
48211;SDS011;34000;48.772;9.162;2024-01-11T03:31:27;24.65;;;12.10;;
48211;SDS011;34000;48.772;9.162;2024-01-11T03:33:53;21.00;;;10.18;;
48211;SDS011;34000;48.772;9.162;2024-01-11T03:36:22;23.30;;;11.18;;
48211;SDS011;34000;48.772;9.162;2024-01-11T03:38:48;25.05;;;11.88;;
48211;SDS011;34000;48.772;9.162;2024-01-11T03:41:14;24.98;;;11.57;;
48211;SDS011;34000;48.772;9.162;2024-01-11T03:43:40;23.50;;;11.35;;
48211;SDS011;34000;48.772;9.162;2024-01-11T03:46:06;28.48;;;11.15;;
48211;SDS011;34000;48.772;9.162;2024-01-11T03:48:32;28.30;;;11.40;;
48211;SDS011;34000;48.772;9.162;2024-01-11T03:51:00;20.38;;;10.48;;
48211;SDS011;34000;48.772;9.162;2024-01-11T03:53:26;23.98;;;9.93;;
48211;SDS011;34000;48.772;9.162;2024-01-11T03:55:52;25.00;;;11.50;;
48211;SDS011;34000;48.772;9.162;2024-01-11T03:58:18;20.52;;;10.80;;
48211;SDS011;34000;48.772;9.162;2024-01-11T04:00:45;22.15;;;12.18;;
48211;SDS011;34000;48.772;9.162;2024-01-11T04:03:11;18.90;;;10.32;;
48211;SDS011;34000;48.772;9.162;2024-01-11T04:05:37;23.30;;;11.27;;
48211;SDS011;34000;48.772;9.162;2024-01-11T04:08:03;27.05;;;11.43;;
48211;SDS011;34000;48.772;9.162;2024-01-11T04:10:29;30.85;;;11.50;;
48211;SDS011;34000;48.772;9.162;2024-01-11T04:12:55;21.42;;;10.75;;
48211;SDS011;34000;48.772;9.162;2024-01-11T04:15:21;22.35;;;9.85;;
48211;SDS011;34000;48.772;9.162;2024-01-11T04:17:47;25.98;;;10.00;;
48211;SDS011;34000;48.772;9.162;2024-01-11T04:20:13;22.30;;;10.57;;
48211;SDS011;34000;48.772;9.162;2024-01-11T04:22:39;21.58;;;10.65;;
48211;SDS011;34000;48.772;9.162;2024-01-11T04:25:05;21.25;;;11.27;;
48211;SDS011;34000;48.772;9.162;2024-01-11T04:27:31;21.80;;;11.23;;
48211;SDS011;34000;48.772;9.162;2024-01-11T04:29:57;16.88;;;9.30;;
48211;SDS011;34000;48.772;9.162;2024-01-11T04:32:23;26.55;;;11.68;;
48211;SDS011;34000;48.772;9.162;2024-01-11T04:34:49;28.15;;;11.18;;
48211;SDS011;34000;48.772;9.162;2024-01-11T04:37:15;20.70;;;9.15;;
48211;SDS011;34000;48.772;9.162;2024-01-11T04:39:41;25.48;;;10.80;;
48211;SDS011;34000;48.772;9.162;2024-01-11T04:42:07;17.92;;;9.10;;
48211;SDS011;34000;48.772;9.162;2024-01-11T04:44:33;25.20;;;11.30;;
48211;SDS011;34000;48.772;9.162;2024-01-11T04:46:59;20.23;;;10.63;;
48211;SDS011;34000;48.772;9.162;2024-01-11T04:49:25;26.73;;;11.55;;
48211;SDS011;34000;48.772;9.162;2024-01-11T04:51:51;22.00;;;11.00;;
48211;SDS011;34000;48.772;9.162;2024-01-11T04:54:17;19.38;;;10.30;;
48211;SDS011;34000;48.772;9.162;2024-01-11T04:56:43;20.15;;;10.90;;
48211;SDS011;34000;48.772;9.162;2024-01-11T04:59:09;26.02;;;11.70;;
48211;SDS011;34000;48.772;9.162;2024-01-11T05:01:35;20.15;;;9.52;;
48211;SDS011;34000;48.772;9.162;2024-01-11T05:04:01;22.95;;;11.98;;
48211;SDS011;34000;48.772;9.162;2024-01-11T05:06:27;25.10;;;11.38;;
48211;SDS011;34000;48.772;9.162;2024-01-11T05:08:54;22.80;;;11.48;;
48211;SDS011;34000;48.772;9.162;2024-01-11T05:11:21;22.30;;;11.02;;
48211;SDS011;34000;48.772;9.162;2024-01-11T05:13:49;22.75;;;11.50;;
48211;SDS011;34000;48.772;9.162;2024-01-11T05:18:44;20.02;;;10.90;;
48211;SDS011;34000;48.772;9.162;2024-01-11T05:21:10;21.08;;;11.57;;
48211;SDS011;34000;48.772;9.162;2024-01-11T05:23:36;21.13;;;10.50;;
48211;SDS011;34000;48.772;9.162;2024-01-11T05:26:02;18.65;;;9.93;;
48211;SDS011;34000;48.772;9.162;2024-01-11T05:28:28;26.52;;;11.10;;
48211;SDS011;34000;48.772;9.162;2024-01-11T05:30:54;29.95;;;13.60;;
48211;SDS011;34000;48.772;9.162;2024-01-11T05:33:20;26.35;;;11.98;;
48211;SDS011;34000;48.772;9.162;2024-01-11T05:35:47;23.58;;;11.30;;
48211;SDS011;34000;48.772;9.162;2024-01-11T05:38:13;24.95;;;12.60;;
48211;SDS011;34000;48.772;9.162;2024-01-11T05:40:39;24.20;;;12.30;;
48211;SDS011;34000;48.772;9.162;2024-01-11T05:43:05;20.63;;;10.23;;
48211;SDS011;34000;48.772;9.162;2024-01-11T05:45:31;24.33;;;11.13;;
48211;SDS011;34000;48.772;9.162;2024-01-11T05:47:58;23.73;;;12.07;;
48211;SDS011;34000;48.772;9.162;2024-01-11T05:50:24;29.48;;;13.07;;
48211;SDS011;34000;48.772;9.162;2024-01-11T05:52:51;26.95;;;12.48;;
48211;SDS011;34000;48.772;9.162;2024-01-11T05:55:19;24.10;;;11.02;;
48211;SDS011;34000;48.772;9.162;2024-01-11T05:57:45;29.75;;;13.23;;
48211;SDS011;34000;48.772;9.162;2024-01-11T06:00:12;27.15;;;10.75;;
48211;SDS011;34000;48.772;9.162;2024-01-11T06:02:38;31.20;;;13.48;;
48211;SDS011;34000;48.772;9.162;2024-01-11T06:05:04;27.10;;;11.35;;
48211;SDS011;34000;48.772;9.162;2024-01-11T06:07:30;29.73;;;12.73;;
48211;SDS011;34000;48.772;9.162;2024-01-11T06:09:56;21.65;;;10.63;;
48211;SDS011;34000;48.772;9.162;2024-01-11T06:12:22;20.92;;;11.02;;
48211;SDS011;34000;48.772;9.162;2024-01-11T06:14:48;26.13;;;12.80;;
48211;SDS011;34000;48.772;9.162;2024-01-11T06:17:13;25.42;;;10.77;;
48211;SDS011;34000;48.772;9.162;2024-01-11T06:19:39;23.83;;;12.13;;
48211;SDS011;34000;48.772;9.162;2024-01-11T06:22:05;21.23;;;10.35;;
48211;SDS011;34000;48.772;9.162;2024-01-11T06:24:32;22.15;;;10.35;;
48211;SDS011;34000;48.772;9.162;2024-01-11T06:26:58;22.05;;;10.95;;
48211;SDS011;34000;48.772;9.162;2024-01-11T06:29:24;27.23;;;12.60;;
48211;SDS011;34000;48.772;9.162;2024-01-11T06:31:49;20.77;;;10.07;;
48211;SDS011;34000;48.772;9.162;2024-01-11T06:34:15;29.40;;;10.15;;
48211;SDS011;34000;48.772;9.162;2024-01-11T06:36:41;23.02;;;11.05;;
48211;SDS011;34000;48.772;9.162;2024-01-11T06:39:07;26.05;;;10.98;;
48211;SDS011;34000;48.772;9.162;2024-01-11T06:41:35;22.50;;;10.75;;
48211;SDS011;34000;48.772;9.162;2024-01-11T06:44:01;20.88;;;10.32;;
48211;SDS011;34000;48.772;9.162;2024-01-11T06:46:27;25.85;;;11.05;;
48211;SDS011;34000;48.772;9.162;2024-01-11T06:48:53;27.52;;;12.52;;
48211;SDS011;34000;48.772;9.162;2024-01-11T06:51:22;23.75;;;10.65;;
48211;SDS011;34000;48.772;9.162;2024-01-11T06:53:48;25.50;;;12.25;;
48211;SDS011;34000;48.772;9.162;2024-01-11T06:56:18;25.20;;;11.40;;
48211;SDS011;34000;48.772;9.162;2024-01-11T06:58:45;22.55;;;11.05;;
48211;SDS011;34000;48.772;9.162;2024-01-11T07:01:12;29.27;;;11.85;;
48211;SDS011;34000;48.772;9.162;2024-01-11T07:03:38;28.52;;;10.68;;
48211;SDS011;34000;48.772;9.162;2024-01-11T07:06:05;29.65;;;14.15;;
48211;SDS011;34000;48.772;9.162;2024-01-11T07:08:31;27.38;;;11.25;;
48211;SDS011;34000;48.772;9.162;2024-01-11T07:11:00;22.35;;;10.55;;
48211;SDS011;34000;48.772;9.162;2024-01-11T07:13:32;29.05;;;12.40;;
48211;SDS011;34000;48.772;9.162;2024-01-11T07:15:58;30.98;;;13.18;;
48211;SDS011;34000;48.772;9.162;2024-01-11T07:18:24;31.48;;;11.70;;
48211;SDS011;34000;48.772;9.162;2024-01-11T07:20:51;25.60;;;12.07;;
48211;SDS011;34000;48.772;9.162;2024-01-11T07:23:17;24.42;;;11.57;;
48211;SDS011;34000;48.772;9.162;2024-01-11T07:25:43;27.98;;;12.13;;
48211;SDS011;34000;48.772;9.162;2024-01-11T07:28:09;22.77;;;10.05;;
48211;SDS011;34000;48.772;9.162;2024-01-11T07:30:35;22.23;;;11.02;;
48211;SDS011;34000;48.772;9.162;2024-01-11T07:33:01;24.30;;;12.23;;
48211;SDS011;34000;48.772;9.162;2024-01-11T07:35:27;26.20;;;12.50;;
48211;SDS011;34000;48.772;9.162;2024-01-11T07:37:53;27.15;;;10.05;;
48211;SDS011;34000;48.772;9.162;2024-01-11T07:40:19;29.75;;;12.70;;
48211;SDS011;34000;48.772;9.162;2024-01-11T07:42:45;23.40;;;11.50;;
48211;SDS011;34000;48.772;9.162;2024-01-11T07:45:11;27.50;;;11.10;;
48211;SDS011;34000;48.772;9.162;2024-01-11T07:47:37;27.23;;;11.10;;
48211;SDS011;34000;48.772;9.162;2024-01-11T07:50:04;26.40;;;11.48;;
48211;SDS011;34000;48.772;9.162;2024-01-11T07:52:31;29.50;;;13.45;;
48211;SDS011;34000;48.772;9.162;2024-01-11T07:54:57;32.78;;;13.30;;
48211;SDS011;34000;48.772;9.162;2024-01-11T07:57:31;27.65;;;13.25;;
48211;SDS011;34000;48.772;9.162;2024-01-11T07:59:57;30.90;;;11.30;;
48211;SDS011;34000;48.772;9.162;2024-01-11T08:02:24;20.83;;;10.77;;
48211;SDS011;34000;48.772;9.162;2024-01-11T08:04:50;25.45;;;11.70;;
48211;SDS011;34000;48.772;9.162;2024-01-11T08:07:16;25.40;;;11.88;;
48211;SDS011;34000;48.772;9.162;2024-01-11T08:09:42;24.45;;;11.95;;
48211;SDS011;34000;48.772;9.162;2024-01-11T08:12:14;24.00;;;11.95;;
48211;SDS011;34000;48.772;9.162;2024-01-11T08:14:40;21.17;;;11.88;;
48211;SDS011;34000;48.772;9.162;2024-01-11T08:17:11;23.88;;;11.30;;
48211;SDS011;34000;48.772;9.162;2024-01-11T08:19:38;30.17;;;13.90;;
48211;SDS011;34000;48.772;9.162;2024-01-11T08:22:05;33.67;;;12.35;;
48211;SDS011;34000;48.772;9.162;2024-01-11T08:24:31;24.27;;;11.50;;
48211;SDS011;34000;48.772;9.162;2024-01-11T08:26:57;31.00;;;12.95;;
48211;SDS011;34000;48.772;9.162;2024-01-11T08:29:23;27.08;;;11.30;;
48211;SDS011;34000;48.772;9.162;2024-01-11T08:31:50;30.92;;;11.98;;
48211;SDS011;34000;48.772;9.162;2024-01-11T08:34:16;28.38;;;13.43;;
48211;SDS011;34000;48.772;9.162;2024-01-11T08:36:42;34.22;;;13.77;;
48211;SDS011;34000;48.772;9.162;2024-01-11T08:39:08;28.67;;;14.18;;
48211;SDS011;34000;48.772;9.162;2024-01-11T08:41:36;45.70;;;19.40;;
48211;SDS011;34000;48.772;9.162;2024-01-11T08:44:05;30.05;;;15.20;;
48211;SDS011;34000;48.772;9.162;2024-01-11T08:46:31;30.50;;;13.43;;
48211;SDS011;34000;48.772;9.162;2024-01-11T08:49:01;27.20;;;12.68;;
48211;SDS011;34000;48.772;9.162;2024-01-11T08:51:28;33.65;;;13.75;;
48211;SDS011;34000;48.772;9.162;2024-01-11T08:53:54;24.10;;;11.25;;
48211;SDS011;34000;48.772;9.162;2024-01-11T08:56:20;34.40;;;14.10;;
48211;SDS011;34000;48.772;9.162;2024-01-11T08:58:46;27.20;;;11.63;;
48211;SDS011;34000;48.772;9.162;2024-01-11T09:01:13;28.50;;;11.35;;
48211;SDS011;34000;48.772;9.162;2024-01-11T09:03:39;27.13;;;13.25;;
48211;SDS011;34000;48.772;9.162;2024-01-11T09:06:05;30.58;;;13.95;;
48211;SDS011;34000;48.772;9.162;2024-01-11T09:08:31;27.92;;;14.02;;
48211;SDS011;34000;48.772;9.162;2024-01-11T09:10:58;29.85;;;13.50;;
48211;SDS011;34000;48.772;9.162;2024-01-11T09:13:24;27.60;;;13.15;;
48211;SDS011;34000;48.772;9.162;2024-01-11T09:15:53;32.67;;;13.55;;
48211;SDS011;34000;48.772;9.162;2024-01-11T09:18:19;28.65;;;12.43;;
48211;SDS011;34000;48.772;9.162;2024-01-11T09:20:45;29.60;;;13.27;;
48211;SDS011;34000;48.772;9.162;2024-01-11T09:23:12;26.42;;;13.10;;
48211;SDS011;34000;48.772;9.162;2024-01-11T09:25:38;29.13;;;13.07;;
48211;SDS011;34000;48.772;9.162;2024-01-11T09:28:05;29.58;;;13.52;;
48211;SDS011;34000;48.772;9.162;2024-01-11T09:30:31;32.40;;;13.55;;
48211;SDS011;34000;48.772;9.162;2024-01-11T09:32:57;35.00;;;14.48;;
48211;SDS011;34000;48.772;9.162;2024-01-11T09:35:23;28.23;;;13.52;;
48211;SDS011;34000;48.772;9.162;2024-01-11T09:37:49;36.55;;;13.20;;
48211;SDS011;34000;48.772;9.162;2024-01-11T09:40:14;26.45;;;11.57;;
48211;SDS011;34000;48.772;9.162;2024-01-11T09:42:42;32.05;;;13.77;;
48211;SDS011;34000;48.772;9.162;2024-01-11T09:45:09;29.45;;;13.13;;
48211;SDS011;34000;48.772;9.162;2024-01-11T09:47:37;28.83;;;12.95;;
48211;SDS011;34000;48.772;9.162;2024-01-11T09:50:04;25.85;;;12.80;;
48211;SDS011;34000;48.772;9.162;2024-01-11T09:52:31;34.17;;;14.25;;
48211;SDS011;34000;48.772;9.162;2024-01-11T09:54:57;26.92;;;13.43;;
48211;SDS011;34000;48.772;9.162;2024-01-11T09:57:32;30.20;;;13.45;;
48211;SDS011;34000;48.772;9.162;2024-01-11T10:00:02;24.70;;;12.25;;
48211;SDS011;34000;48.772;9.162;2024-01-11T10:02:32;23.27;;;12.17;;
48211;SDS011;34000;48.772;9.162;2024-01-11T10:04:58;26.88;;;12.52;;
48211;SDS011;34000;48.772;9.162;2024-01-11T10:07:24;27.77;;;12.85;;
48211;SDS011;34000;48.772;9.162;2024-01-11T10:09:50;27.90;;;13.13;;
48211;SDS011;34000;48.772;9.162;2024-01-11T10:12:22;29.17;;;13.68;;
48211;SDS011;34000;48.772;9.162;2024-01-11T10:14:50;28.88;;;13.52;;
48211;SDS011;34000;48.772;9.162;2024-01-11T10:17:17;26.48;;;12.88;;
48211;SDS011;34000;48.772;9.162;2024-01-11T10:19:42;32.05;;;14.52;;
48211;SDS011;34000;48.772;9.162;2024-01-11T10:22:08;33.50;;;14.38;;
48211;SDS011;34000;48.772;9.162;2024-01-11T10:24:37;26.38;;;13.95;;
48211;SDS011;34000;48.772;9.162;2024-01-11T10:27:03;27.25;;;13.70;;
48211;SDS011;34000;48.772;9.162;2024-01-11T10:29:31;30.77;;;14.32;;
48211;SDS011;34000;48.772;9.162;2024-01-11T10:31:57;53.42;;;27.20;;
48211;SDS011;34000;48.772;9.162;2024-01-11T10:34:23;26.65;;;13.98;;
48211;SDS011;34000;48.772;9.162;2024-01-11T10:36:52;31.48;;;14.32;;
48211;SDS011;34000;48.772;9.162;2024-01-11T10:39:18;26.40;;;14.05;;
48211;SDS011;34000;48.772;9.162;2024-01-11T10:41:51;33.22;;;15.57;;
48211;SDS011;34000;48.772;9.162;2024-01-11T10:44:26;28.92;;;14.30;;
48211;SDS011;34000;48.772;9.162;2024-01-11T10:46:55;44.78;;;20.13;;
48211;SDS011;34000;48.772;9.162;2024-01-11T10:49:22;29.33;;;14.98;;
48211;SDS011;34000;48.772;9.162;2024-01-11T10:51:58;28.95;;;15.23;;
48211;SDS011;34000;48.772;9.162;2024-01-11T10:54:27;27.60;;;13.95;;
48211;SDS011;34000;48.772;9.162;2024-01-11T10:56:53;31.27;;;15.45;;
48211;SDS011;34000;48.772;9.162;2024-01-11T10:59:21;28.48;;;13.95;;
48211;SDS011;34000;48.772;9.162;2024-01-11T11:01:54;27.88;;;12.63;;
48211;SDS011;34000;48.772;9.162;2024-01-11T11:04:22;29.98;;;14.52;;
48211;SDS011;34000;48.772;9.162;2024-01-11T11:06:50;24.45;;;13.48;;
48211;SDS011;34000;48.772;9.162;2024-01-11T11:09:19;27.35;;;13.80;;
48211;SDS011;34000;48.772;9.162;2024-01-11T11:11:47;26.85;;;13.68;;
48211;SDS011;34000;48.772;9.162;2024-01-11T11:14:14;26.05;;;13.07;;
48211;SDS011;34000;48.772;9.162;2024-01-11T11:16:40;29.27;;;14.77;;
48211;SDS011;34000;48.772;9.162;2024-01-11T11:19:07;29.40;;;13.23;;
48211;SDS011;34000;48.772;9.162;2024-01-11T11:21:41;28.67;;;13.98;;
48211;SDS011;34000;48.772;9.162;2024-01-11T11:24:07;30.98;;;14.18;;
48211;SDS011;34000;48.772;9.162;2024-01-11T11:26:33;28.23;;;13.52;;
48211;SDS011;34000;48.772;9.162;2024-01-11T11:29:00;28.63;;;14.43;;
48211;SDS011;34000;48.772;9.162;2024-01-11T11:31:35;29.17;;;14.75;;
48211;SDS011;34000;48.772;9.162;2024-01-11T11:34:03;27.48;;;13.63;;
48211;SDS011;34000;48.772;9.162;2024-01-11T11:36:29;26.48;;;15.15;;
48211;SDS011;34000;48.772;9.162;2024-01-11T11:38:56;25.25;;;13.38;;
48211;SDS011;34000;48.772;9.162;2024-01-11T11:41:25;27.35;;;13.75;;
48211;SDS011;34000;48.772;9.162;2024-01-11T11:43:51;27.27;;;14.15;;
48211;SDS011;34000;48.772;9.162;2024-01-11T11:46:17;23.85;;;13.63;;
48211;SDS011;34000;48.772;9.162;2024-01-11T11:51:12;25.40;;;13.63;;
48211;SDS011;34000;48.772;9.162;2024-01-11T11:53:39;27.98;;;14.60;;
48211;SDS011;34000;48.772;9.162;2024-01-11T11:56:06;26.70;;;14.25;;
48211;SDS011;34000;48.772;9.162;2024-01-11T11:58:33;25.67;;;13.75;;
48211;SDS011;34000;48.772;9.162;2024-01-11T12:01:00;24.80;;;12.85;;
48211;SDS011;34000;48.772;9.162;2024-01-11T12:03:33;27.27;;;14.25;;
48211;SDS011;34000;48.772;9.162;2024-01-11T12:06:09;31.60;;;13.98;;
48211;SDS011;34000;48.772;9.162;2024-01-11T12:08:36;28.05;;;13.93;;
48211;SDS011;34000;48.772;9.162;2024-01-11T12:11:02;29.48;;;14.23;;
48211;SDS011;34000;48.772;9.162;2024-01-11T12:13:28;25.55;;;14.02;;
48211;SDS011;34000;48.772;9.162;2024-01-11T12:15:58;26.15;;;13.65;;
48211;SDS011;34000;48.772;9.162;2024-01-11T12:18:24;24.38;;;13.32;;
48211;SDS011;34000;48.772;9.162;2024-01-11T12:20:49;26.83;;;14.57;;
48211;SDS011;34000;48.772;9.162;2024-01-11T12:23:18;24.48;;;13.52;;
48211;SDS011;34000;48.772;9.162;2024-01-11T12:25:43;31.65;;;14.45;;
48211;SDS011;34000;48.772;9.162;2024-01-11T12:28:09;29.67;;;14.35;;
48211;SDS011;34000;48.772;9.162;2024-01-11T12:30:35;29.80;;;14.82;;
48211;SDS011;34000;48.772;9.162;2024-01-11T12:33:01;27.88;;;14.27;;
48211;SDS011;34000;48.772;9.162;2024-01-11T12:35:27;29.80;;;13.98;;
48211;SDS011;34000;48.772;9.162;2024-01-11T12:40:20;26.23;;;12.68;;
48211;SDS011;34000;48.772;9.162;2024-01-11T12:42:46;30.05;;;13.75;;
48211;SDS011;34000;48.772;9.162;2024-01-11T12:45:14;28.88;;;13.88;;
48211;SDS011;34000;48.772;9.162;2024-01-11T12:47:40;30.55;;;14.07;;
48211;SDS011;34000;48.772;9.162;2024-01-11T12:50:06;29.55;;;13.82;;
48211;SDS011;34000;48.772;9.162;2024-01-11T12:52:32;29.58;;;14.88;;
48211;SDS011;34000;48.772;9.162;2024-01-11T12:54:58;27.25;;;13.63;;
48211;SDS011;34000;48.772;9.162;2024-01-11T12:57:24;26.38;;;12.85;;
48211;SDS011;34000;48.772;9.162;2024-01-11T12:59:51;27.38;;;13.10;;
48211;SDS011;34000;48.772;9.162;2024-01-11T13:02:17;29.98;;;13.45;;
48211;SDS011;34000;48.772;9.162;2024-01-11T13:04:43;27.17;;;14.15;;
48211;SDS011;34000;48.772;9.162;2024-01-11T13:07:11;27.33;;;13.43;;
48211;SDS011;34000;48.772;9.162;2024-01-11T13:09:37;30.58;;;13.82;;
48211;SDS011;34000;48.772;9.162;2024-01-11T13:12:04;26.20;;;13.35;;
48211;SDS011;34000;48.772;9.162;2024-01-11T13:14:30;30.75;;;14.18;;
48211;SDS011;34000;48.772;9.162;2024-01-11T13:16:56;29.55;;;13.10;;
48211;SDS011;34000;48.772;9.162;2024-01-11T13:19:22;25.05;;;14.05;;
48211;SDS011;34000;48.772;9.162;2024-01-11T13:21:48;25.25;;;12.40;;
48211;SDS011;34000;48.772;9.162;2024-01-11T13:24:14;29.75;;;13.90;;
48211;SDS011;34000;48.772;9.162;2024-01-11T13:26:39;23.58;;;13.13;;
48211;SDS011;34000;48.772;9.162;2024-01-11T13:29:05;30.75;;;13.85;;
48211;SDS011;34000;48.772;9.162;2024-01-11T13:31:31;23.38;;;12.55;;
48211;SDS011;34000;48.772;9.162;2024-01-11T13:33:58;27.55;;;13.15;;
48211;SDS011;34000;48.772;9.162;2024-01-11T13:36:23;29.20;;;14.68;;
48211;SDS011;34000;48.772;9.162;2024-01-11T13:38:50;30.05;;;14.18;;
48211;SDS011;34000;48.772;9.162;2024-01-11T13:41:16;27.90;;;13.52;;
48211;SDS011;34000;48.772;9.162;2024-01-11T13:43:42;27.90;;;13.30;;
48211;SDS011;34000;48.772;9.162;2024-01-11T13:46:08;24.63;;;12.70;;
48211;SDS011;34000;48.772;9.162;2024-01-11T13:48:34;29.60;;;14.38;;
48211;SDS011;34000;48.772;9.162;2024-01-11T13:51:00;27.42;;;13.90;;
48211;SDS011;34000;48.772;9.162;2024-01-11T13:53:28;29.27;;;14.25;;
48211;SDS011;34000;48.772;9.162;2024-01-11T13:55:54;28.33;;;13.55;;
48211;SDS011;34000;48.772;9.162;2024-01-11T13:58:20;28.42;;;13.95;;
48211;SDS011;34000;48.772;9.162;2024-01-11T14:00:46;32.63;;;14.25;;
48211;SDS011;34000;48.772;9.162;2024-01-11T14:03:12;28.30;;;13.45;;
48211;SDS011;34000;48.772;9.162;2024-01-11T14:05:38;33.70;;;14.05;;
48211;SDS011;34000;48.772;9.162;2024-01-11T14:08:03;25.33;;;13.20;;
48211;SDS011;34000;48.772;9.162;2024-01-11T14:10:33;30.27;;;14.63;;
48211;SDS011;34000;48.772;9.162;2024-01-11T14:12:59;26.42;;;13.35;;
48211;SDS011;34000;48.772;9.162;2024-01-11T14:15:26;27.45;;;12.82;;
48211;SDS011;34000;48.772;9.162;2024-01-11T14:17:52;27.20;;;13.45;;
48211;SDS011;34000;48.772;9.162;2024-01-11T14:20:18;29.27;;;12.45;;
48211;SDS011;34000;48.772;9.162;2024-01-11T14:22:45;24.95;;;12.52;;
48211;SDS011;34000;48.772;9.162;2024-01-11T14:25:20;28.13;;;14.05;;
48211;SDS011;34000;48.772;9.162;2024-01-11T14:27:49;26.27;;;14.00;;